sensor_id;sensor_type;location;lat;lon;timestamp;P1;durP1;ratioP1;P2;durP2;ratioP2
32505;SDS011;18955;51.224;8.482;2022-11-20T00:03:42;6.22;;;2.70;;
32505;SDS011;18955;51.224;8.482;2022-11-20T00:08:37;5.90;;;3.03;;
32505;SDS011;18955;51.224;8.482;2022-11-20T00:13:30;4.55;;;2.80;;
32505;SDS011;18955;51.224;8.482;2022-11-20T00:15:58;6.38;;;2.58;;
32505;SDS011;18955;51.224;8.482;2022-11-20T00:18:25;6.35;;;2.67;;
32505;SDS011;18955;51.224;8.482;2022-11-20T00:20:52;5.10;;;2.60;;
32505;SDS011;18955;51.224;8.482;2022-11-20T00:23:19;7.47;;;2.67;;
32505;SDS011;18955;51.224;8.482;2022-11-20T00:25:45;6.60;;;2.55;;
32505;SDS011;18955;51.224;8.482;2022-11-20T00:28:11;3.90;;;2.00;;
32505;SDS011;18955;51.224;8.482;2022-11-20T00:30:37;6.00;;;2.45;;
32505;SDS011;18955;51.224;8.482;2022-11-20T00:33:03;6.78;;;2.70;;
32505;SDS011;18955;51.224;8.482;2022-11-20T00:35:30;4.38;;;2.10;;
32505;SDS011;18955;51.224;8.482;2022-11-20T00:37:56;4.28;;;2.70;;
32505;SDS011;18955;51.224;8.482;2022-11-20T00:40:22;2.95;;;2.20;;
32505;SDS011;18955;51.224;8.482;2022-11-20T00:42:48;4.05;;;1.88;;
32505;SDS011;18955;51.224;8.482;2022-11-20T00:45:14;6.35;;;2.08;;
32505;SDS011;18955;51.224;8.482;2022-11-20T00:47:40;9.73;;;2.28;;
32505;SDS011;18955;51.224;8.482;2022-11-20T00:50:07;2.67;;;1.83;;
32505;SDS011;18955;51.224;8.482;2022-11-20T00:52:33;4.13;;;2.17;;
32505;SDS011;18955;51.224;8.482;2022-11-20T00:54:59;4.90;;;1.88;;
32505;SDS011;18955;51.224;8.482;2022-11-20T00:57:25;5.95;;;2.28;;
32505;SDS011;18955;51.224;8.482;2022-11-20T00:59:52;7.32;;;2.85;;
32505;SDS011;18955;51.224;8.482;2022-11-20T01:02:18;4.13;;;2.10;;
32505;SDS011;18955;51.224;8.482;2022-11-20T01:04:44;3.20;;;1.52;;
32505;SDS011;18955;51.224;8.482;2022-11-20T01:07:11;5.15;;;1.58;;
32505;SDS011;18955;51.224;8.482;2022-11-20T01:09:37;4.45;;;2.00;;
32505;SDS011;18955;51.224;8.482;2022-11-20T01:12:03;5.10;;;2.45;;
32505;SDS011;18955;51.224;8.482;2022-11-20T01:14:30;6.40;;;1.65;;
32505;SDS011;18955;51.224;8.482;2022-11-20T01:16:56;4.05;;;1.70;;
32505;SDS011;18955;51.224;8.482;2022-11-20T01:19:22;2.38;;;1.30;;
32505;SDS011;18955;51.224;8.482;2022-11-20T01:21:50;3.15;;;1.75;;
32505;SDS011;18955;51.224;8.482;2022-11-20T01:24:19;6.47;;;1.92;;
32505;SDS011;18955;51.224;8.482;2022-11-20T01:26:47;4.18;;;1.48;;
32505;SDS011;18955;51.224;8.482;2022-11-20T01:29:21;4.57;;;1.70;;
32505;SDS011;18955;51.224;8.482;2022-11-20T01:31:48;5.45;;;2.08;;
32505;SDS011;18955;51.224;8.482;2022-11-20T01:36:42;3.08;;;1.60;;
32505;SDS011;18955;51.224;8.482;2022-11-20T01:41:40;4.00;;;1.70;;
32505;SDS011;18955;51.224;8.482;2022-11-20T01:44:43;1.60;;;1.20;;
32505;SDS011;18955;51.224;8.482;2022-11-20T01:47:12;3.35;;;1.55;;
32505;SDS011;18955;51.224;8.482;2022-11-20T01:49:52;4.90;;;1.30;;
32505;SDS011;18955;51.224;8.482;2022-11-20T01:52:30;5.63;;;1.60;;
32505;SDS011;18955;51.224;8.482;2022-11-20T01:55:13;3.67;;;1.30;;
32505;SDS011;18955;51.224;8.482;2022-11-20T01:57:43;3.22;;;1.45;;
32505;SDS011;18955;51.224;8.482;2022-11-20T02:00:12;5.85;;;1.50;;
32505;SDS011;18955;51.224;8.482;2022-11-20T02:02:44;1.92;;;1.27;;
32505;SDS011;18955;51.224;8.482;2022-11-20T02:07:47;4.50;;;1.30;;
32505;SDS011;18955;51.224;8.482;2022-11-20T02:10:14;2.35;;;1.42;;
32505;SDS011;18955;51.224;8.482;2022-11-20T02:12:41;2.15;;;1.63;;
32505;SDS011;18955;51.224;8.482;2022-11-20T02:15:25;2.83;;;1.50;;
32505;SDS011;18955;51.224;8.482;2022-11-20T02:17:51;2.33;;;1.55;;
32505;SDS011;18955;51.224;8.482;2022-11-20T02:20:19;2.88;;;1.42;;
32505;SDS011;18955;51.224;8.482;2022-11-20T02:22:55;5.30;;;1.88;;
32505;SDS011;18955;51.224;8.482;2022-11-20T02:25:27;4.47;;;1.58;;
32505;SDS011;18955;51.224;8.482;2022-11-20T02:27:55;4.85;;;1.30;;
32505;SDS011;18955;51.224;8.482;2022-11-20T02:30:21;2.95;;;1.20;;
32505;SDS011;18955;51.224;8.482;2022-11-20T02:32:48;3.05;;;1.40;;
32505;SDS011;18955;51.224;8.482;2022-11-20T02:37:50;3.88;;;1.40;;
32505;SDS011;18955;51.224;8.482;2022-11-20T02:40:19;5.25;;;1.88;;
32505;SDS011;18955;51.224;8.482;2022-11-20T02:42:45;1.77;;;1.25;;
32505;SDS011;18955;51.224;8.482;2022-11-20T02:45:12;4.82;;;1.55;;
32505;SDS011;18955;51.224;8.482;2022-11-20T02:47:38;5.35;;;1.55;;
32505;SDS011;18955;51.224;8.482;2022-11-20T02:50:05;4.13;;;1.50;;
32505;SDS011;18955;51.224;8.482;2022-11-20T02:52:32;2.50;;;1.30;;
32505;SDS011;18955;51.224;8.482;2022-11-20T02:54:58;3.70;;;1.50;;
32505;SDS011;18955;51.224;8.482;2022-11-20T02:57:24;4.03;;;1.30;;
32505;SDS011;18955;51.224;8.482;2022-11-20T02:59:50;2.70;;;1.50;;
32505;SDS011;18955;51.224;8.482;2022-11-20T03:02:17;1.20;;;1.10;;
32505;SDS011;18955;51.224;8.482;2022-11-20T03:04:43;3.45;;;0.90;;
32505;SDS011;18955;51.224;8.482;2022-11-20T03:07:09;1.90;;;1.17;;
32505;SDS011;18955;51.224;8.482;2022-11-20T03:09:35;2.92;;;1.50;;
32505;SDS011;18955;51.224;8.482;2022-11-20T03:12:02;4.10;;;1.60;;
32505;SDS011;18955;51.224;8.482;2022-11-20T03:14:28;1.77;;;1.45;;
32505;SDS011;18955;51.224;8.482;2022-11-20T03:16:55;2.53;;;1.52;;
32505;SDS011;18955;51.224;8.482;2022-11-20T03:19:21;1.50;;;1.00;;
32505;SDS011;18955;51.224;8.482;2022-11-20T03:21:48;2.78;;;1.33;;
32505;SDS011;18955;51.224;8.482;2022-11-20T03:24:14;2.13;;;1.50;;
32505;SDS011;18955;51.224;8.482;2022-11-20T03:26:41;5.57;;;1.48;;
32505;SDS011;18955;51.224;8.482;2022-11-20T03:29:07;2.38;;;1.20;;
32505;SDS011;18955;51.224;8.482;2022-11-20T03:31:34;1.58;;;1.40;;
32505;SDS011;18955;51.224;8.482;2022-11-20T03:34:03;3.13;;;1.33;;
32505;SDS011;18955;51.224;8.482;2022-11-20T03:36:30;2.58;;;1.20;;
32505;SDS011;18955;51.224;8.482;2022-11-20T03:38:56;0.85;;;0.85;;
32505;SDS011;18955;51.224;8.482;2022-11-20T03:43:55;1.48;;;1.20;;
32505;SDS011;18955;51.224;8.482;2022-11-20T03:46:23;3.85;;;1.50;;
32505;SDS011;18955;51.224;8.482;2022-11-20T03:51:20;1.38;;;1.27;;
32505;SDS011;18955;51.224;8.482;2022-11-20T03:53:46;1.30;;;1.20;;
32505;SDS011;18955;51.224;8.482;2022-11-20T03:56:15;3.25;;;1.20;;
32505;SDS011;18955;51.224;8.482;2022-11-20T03:58:42;1.75;;;1.48;;
32505;SDS011;18955;51.224;8.482;2022-11-20T04:01:18;2.03;;;1.33;;
32505;SDS011;18955;51.224;8.482;2022-11-20T04:03:47;2.70;;;1.75;;
32505;SDS011;18955;51.224;8.482;2022-11-20T04:08:47;3.05;;;1.67;;
32505;SDS011;18955;51.224;8.482;2022-11-20T04:11:18;1.92;;;1.42;;
32505;SDS011;18955;51.224;8.482;2022-11-20T04:13:47;3.13;;;1.70;;
32505;SDS011;18955;51.224;8.482;2022-11-20T04:16:15;2.05;;;1.58;;
32505;SDS011;18955;51.224;8.482;2022-11-20T04:18:42;2.28;;;1.70;;
32505;SDS011;18955;51.224;8.482;2022-11-20T04:21:09;1.73;;;1.38;;
32505;SDS011;18955;51.224;8.482;2022-11-20T04:23:35;1.75;;;1.50;;
32505;SDS011;18955;51.224;8.482;2022-11-20T04:26:02;3.10;;;1.85;;
32505;SDS011;18955;51.224;8.482;2022-11-20T04:28:33;4.63;;;1.83;;
32505;SDS011;18955;51.224;8.482;2022-11-20T04:31:04;4.15;;;1.80;;
32505;SDS011;18955;51.224;8.482;2022-11-20T04:33:32;6.07;;;1.38;;
32505;SDS011;18955;51.224;8.482;2022-11-20T04:36:00;2.78;;;2.00;;
32505;SDS011;18955;51.224;8.482;2022-11-20T04:38:30;2.03;;;1.38;;
32505;SDS011;18955;51.224;8.482;2022-11-20T04:40:57;2.45;;;1.65;;
32505;SDS011;18955;51.224;8.482;2022-11-20T04:43:25;2.95;;;1.60;;
32505;SDS011;18955;51.224;8.482;2022-11-20T04:45:52;1.98;;;1.30;;
32505;SDS011;18955;51.224;8.482;2022-11-20T04:48:20;2.75;;;1.75;;
32505;SDS011;18955;51.224;8.482;2022-11-20T04:50:46;2.88;;;1.40;;
32505;SDS011;18955;51.224;8.482;2022-11-20T04:53:12;1.73;;;0.98;;
32505;SDS011;18955;51.224;8.482;2022-11-20T04:55:38;4.30;;;1.67;;
32505;SDS011;18955;51.224;8.482;2022-11-20T04:58:04;2.20;;;1.60;;
32505;SDS011;18955;51.224;8.482;2022-11-20T05:00:31;1.70;;;1.60;;
32505;SDS011;18955;51.224;8.482;2022-11-20T05:02:57;2.17;;;1.55;;
32505;SDS011;18955;51.224;8.482;2022-11-20T05:05:23;1.63;;;1.33;;
32505;SDS011;18955;51.224;8.482;2022-11-20T05:07:49;2.90;;;1.50;;
32505;SDS011;18955;51.224;8.482;2022-11-20T05:10:15;3.30;;;1.67;;
32505;SDS011;18955;51.224;8.482;2022-11-20T05:12:42;2.42;;;1.65;;
32505;SDS011;18955;51.224;8.482;2022-11-20T05:15:08;1.27;;;1.15;;
32505;SDS011;18955;51.224;8.482;2022-11-20T05:17:35;2.22;;;1.80;;
32505;SDS011;18955;51.224;8.482;2022-11-20T05:20:01;1.48;;;1.00;;
32505;SDS011;18955;51.224;8.482;2022-11-20T05:22:27;4.70;;;1.85;;
32505;SDS011;18955;51.224;8.482;2022-11-20T05:24:53;2.83;;;1.88;;
32505;SDS011;18955;51.224;8.482;2022-11-20T05:27:19;2.38;;;1.20;;
32505;SDS011;18955;51.224;8.482;2022-11-20T05:29:46;3.90;;;1.75;;
32505;SDS011;18955;51.224;8.482;2022-11-20T05:32:12;3.83;;;1.42;;
32505;SDS011;18955;51.224;8.482;2022-11-20T05:34:38;2.03;;;1.40;;
32505;SDS011;18955;51.224;8.482;2022-11-20T05:37:04;2.35;;;1.50;;
32505;SDS011;18955;51.224;8.482;2022-11-20T05:39:30;3.42;;;1.77;;
32505;SDS011;18955;51.224;8.482;2022-11-20T05:41:56;3.42;;;1.95;;
32505;SDS011;18955;51.224;8.482;2022-11-20T05:44:41;2.05;;;1.75;;
32505;SDS011;18955;51.224;8.482;2022-11-20T05:47:07;3.55;;;2.08;;
32505;SDS011;18955;51.224;8.482;2022-11-20T05:49:33;3.83;;;2.10;;
32505;SDS011;18955;51.224;8.482;2022-11-20T05:51:59;3.40;;;1.80;;
32505;SDS011;18955;51.224;8.482;2022-11-20T05:54:26;2.95;;;2.30;;
32505;SDS011;18955;51.224;8.482;2022-11-20T05:56:52;3.28;;;2.00;;
32505;SDS011;18955;51.224;8.482;2022-11-20T05:59:18;2.20;;;1.50;;
32505;SDS011;18955;51.224;8.482;2022-11-20T06:01:44;5.38;;;2.22;;
32505;SDS011;18955;51.224;8.482;2022-11-20T06:04:10;2.58;;;1.90;;
32505;SDS011;18955;51.224;8.482;2022-11-20T06:06:36;4.15;;;2.42;;
32505;SDS011;18955;51.224;8.482;2022-11-20T06:09:03;1.85;;;1.45;;
32505;SDS011;18955;51.224;8.482;2022-11-20T06:11:29;4.13;;;2.65;;
32505;SDS011;18955;51.224;8.482;2022-11-20T06:13:55;2.30;;;1.88;;
32505;SDS011;18955;51.224;8.482;2022-11-20T06:16:21;6.82;;;3.33;;
32505;SDS011;18955;51.224;8.482;2022-11-20T06:18:47;5.65;;;2.65;;
32505;SDS011;18955;51.224;8.482;2022-11-20T06:21:14;4.80;;;3.33;;
32505;SDS011;18955;51.224;8.482;2022-11-20T06:23:42;6.63;;;4.40;;
32505;SDS011;18955;51.224;8.482;2022-11-20T06:26:10;8.82;;;3.60;;
32505;SDS011;18955;51.224;8.482;2022-11-20T06:28:38;10.60;;;3.92;;
32505;SDS011;18955;51.224;8.482;2022-11-20T06:31:05;5.78;;;3.90;;
32505;SDS011;18955;51.224;8.482;2022-11-20T06:33:31;9.73;;;4.90;;
32505;SDS011;18955;51.224;8.482;2022-11-20T06:35:58;10.57;;;5.15;;
32505;SDS011;18955;51.224;8.482;2022-11-20T06:38:26;13.32;;;5.05;;
32505;SDS011;18955;51.224;8.482;2022-11-20T06:40:53;8.65;;;4.15;;
32505;SDS011;18955;51.224;8.482;2022-11-20T06:43:20;9.68;;;4.57;;
32505;SDS011;18955;51.224;8.482;2022-11-20T06:45:51;15.73;;;5.63;;
32505;SDS011;18955;51.224;8.482;2022-11-20T06:48:21;13.82;;;5.57;;
32505;SDS011;18955;51.224;8.482;2022-11-20T06:50:48;9.90;;;5.22;;
32505;SDS011;18955;51.224;8.482;2022-11-20T06:53:15;22.40;;;6.60;;
32505;SDS011;18955;51.224;8.482;2022-11-20T06:55:42;19.98;;;5.80;;
32505;SDS011;18955;51.224;8.482;2022-11-20T06:58:09;20.95;;;8.30;;
32505;SDS011;18955;51.224;8.482;2022-11-20T07:00:36;21.20;;;9.55;;
32505;SDS011;18955;51.224;8.482;2022-11-20T07:03:02;32.47;;;9.27;;
32505;SDS011;18955;51.224;8.482;2022-11-20T07:05:29;27.88;;;8.73;;
32505;SDS011;18955;51.224;8.482;2022-11-20T07:07:56;28.88;;;9.75;;
32505;SDS011;18955;51.224;8.482;2022-11-20T07:10:23;21.23;;;10.15;;
32505;SDS011;18955;51.224;8.482;2022-11-20T07:12:50;29.02;;;8.85;;
32505;SDS011;18955;51.224;8.482;2022-11-20T07:15:17;19.50;;;9.27;;
32505;SDS011;18955;51.224;8.482;2022-11-20T07:17:44;18.60;;;7.82;;
32505;SDS011;18955;51.224;8.482;2022-11-20T07:20:10;26.17;;;10.18;;
32505;SDS011;18955;51.224;8.482;2022-11-20T07:22:37;19.00;;;9.63;;
32505;SDS011;18955;51.224;8.482;2022-11-20T07:25:04;16.52;;;7.00;;
32505;SDS011;18955;51.224;8.482;2022-11-20T07:27:31;21.50;;;7.85;;
32505;SDS011;18955;51.224;8.482;2022-11-20T07:29:57;28.90;;;11.40;;
32505;SDS011;18955;51.224;8.482;2022-11-20T07:32:24;23.00;;;10.07;;
32505;SDS011;18955;51.224;8.482;2022-11-20T07:34:50;19.23;;;8.63;;
32505;SDS011;18955;51.224;8.482;2022-11-20T07:37:16;14.93;;;7.50;;
32505;SDS011;18955;51.224;8.482;2022-11-20T07:39:42;14.65;;;7.15;;
32505;SDS011;18955;51.224;8.482;2022-11-20T07:42:08;27.35;;;8.32;;
32505;SDS011;18955;51.224;8.482;2022-11-20T07:44:36;19.80;;;8.48;;
32505;SDS011;18955;51.224;8.482;2022-11-20T07:47:03;17.90;;;8.40;;
32505;SDS011;18955;51.224;8.482;2022-11-20T07:49:29;21.20;;;7.95;;
32505;SDS011;18955;51.224;8.482;2022-11-20T07:51:55;20.75;;;9.43;;
32505;SDS011;18955;51.224;8.482;2022-11-20T07:54:21;9.35;;;4.93;;
32505;SDS011;18955;51.224;8.482;2022-11-20T07:56:48;26.05;;;10.77;;
32505;SDS011;18955;51.224;8.482;2022-11-20T07:59:15;31.40;;;11.75;;
32505;SDS011;18955;51.224;8.482;2022-11-20T08:01:41;21.63;;;8.82;;
32505;SDS011;18955;51.224;8.482;2022-11-20T08:06:35;25.60;;;7.28;;
32505;SDS011;18955;51.224;8.482;2022-11-20T08:09:02;18.23;;;8.40;;
32505;SDS011;18955;51.224;8.482;2022-11-20T08:11:28;36.25;;;12.73;;
32505;SDS011;18955;51.224;8.482;2022-11-20T08:14:13;33.88;;;14.25;;
32505;SDS011;18955;51.224;8.482;2022-11-20T08:16:40;39.65;;;14.88;;
32505;SDS011;18955;51.224;8.482;2022-11-20T08:19:07;24.42;;;11.75;;
32505;SDS011;18955;51.224;8.482;2022-11-20T08:21:34;17.05;;;8.68;;
32505;SDS011;18955;51.224;8.482;2022-11-20T08:24:00;19.85;;;11.02;;
32505;SDS011;18955;51.224;8.482;2022-11-20T08:26:26;17.05;;;8.40;;
32505;SDS011;18955;51.224;8.482;2022-11-20T08:28:53;18.23;;;8.75;;
32505;SDS011;18955;51.224;8.482;2022-11-20T08:31:24;15.70;;;6.97;;
32505;SDS011;18955;51.224;8.482;2022-11-20T08:33:52;11.88;;;6.10;;
32505;SDS011;18955;51.224;8.482;2022-11-20T08:36:19;10.95;;;5.70;;
32505;SDS011;18955;51.224;8.482;2022-11-20T08:38:50;13.05;;;6.30;;
32505;SDS011;18955;51.224;8.482;2022-11-20T08:41:18;13.20;;;6.40;;
32505;SDS011;18955;51.224;8.482;2022-11-20T08:43:52;18.30;;;9.43;;
32505;SDS011;18955;51.224;8.482;2022-11-20T08:46:23;19.17;;;10.15;;
32505;SDS011;18955;51.224;8.482;2022-11-20T08:48:51;14.10;;;6.97;;
32505;SDS011;18955;51.224;8.482;2022-11-20T08:53:44;10.13;;;5.80;;
32505;SDS011;18955;51.224;8.482;2022-11-20T08:58:38;13.27;;;6.97;;
32505;SDS011;18955;51.224;8.482;2022-11-20T09:01:04;21.88;;;11.25;;
32505;SDS011;18955;51.224;8.482;2022-11-20T09:03:31;8.63;;;4.80;;
32505;SDS011;18955;51.224;8.482;2022-11-20T09:05:58;8.73;;;4.95;;
32505;SDS011;18955;51.224;8.482;2022-11-20T09:08:25;8.02;;;4.22;;
32505;SDS011;18955;51.224;8.482;2022-11-20T09:13:19;8.48;;;4.55;;
32505;SDS011;18955;51.224;8.482;2022-11-20T09:15:46;10.23;;;5.50;;
32505;SDS011;18955;51.224;8.482;2022-11-20T09:18:12;9.13;;;5.07;;
32505;SDS011;18955;51.224;8.482;2022-11-20T09:20:38;9.15;;;5.35;;
32505;SDS011;18955;51.224;8.482;2022-11-20T09:23:04;10.90;;;4.75;;
32505;SDS011;18955;51.224;8.482;2022-11-20T09:25:31;6.65;;;3.47;;
32505;SDS011;18955;51.224;8.482;2022-11-20T09:27:57;7.25;;;4.40;;
32505;SDS011;18955;51.224;8.482;2022-11-20T09:32:50;7.90;;;4.88;;
32505;SDS011;18955;51.224;8.482;2022-11-20T09:35:16;11.98;;;5.20;;
32505;SDS011;18955;51.224;8.482;2022-11-20T09:37:43;11.95;;;6.40;;
32505;SDS011;18955;51.224;8.482;2022-11-20T09:40:28;10.70;;;5.93;;
32505;SDS011;18955;51.224;8.482;2022-11-20T09:43:10;12.52;;;6.97;;
32505;SDS011;18955;51.224;8.482;2022-11-20T09:54:23;10.07;;;5.57;;
32505;SDS011;18955;51.224;8.482;2022-11-20T09:56:56;10.30;;;5.28;;
32505;SDS011;18955;51.224;8.482;2022-11-20T10:01:59;11.30;;;5.97;;
32505;SDS011;18955;51.224;8.482;2022-11-20T10:04:27;9.43;;;5.28;;
32505;SDS011;18955;51.224;8.482;2022-11-20T10:10:04;11.32;;;5.78;;
32505;SDS011;18955;51.224;8.482;2022-11-20T10:18:28;9.82;;;5.28;;
32505;SDS011;18955;51.224;8.482;2022-11-20T10:26:55;12.07;;;5.40;;
32505;SDS011;18955;51.224;8.482;2022-11-20T10:29:43;12.48;;;6.53;;
32505;SDS011;18955;51.224;8.482;2022-11-20T10:32:21;14.43;;;7.55;;
32505;SDS011;18955;51.224;8.482;2022-11-20T10:34:54;14.00;;;6.18;;
32505;SDS011;18955;51.224;8.482;2022-11-20T10:37:27;9.73;;;5.90;;
32505;SDS011;18955;51.224;8.482;2022-11-20T10:45:22;15.68;;;6.80;;
32505;SDS011;18955;51.224;8.482;2022-11-20T10:48:15;12.32;;;5.88;;
32505;SDS011;18955;51.224;8.482;2022-11-20T10:51:35;11.23;;;6.57;;
32505;SDS011;18955;51.224;8.482;2022-11-20T10:59:55;14.68;;;9.13;;
32505;SDS011;18955;51.224;8.482;2022-11-20T11:02:33;13.80;;;7.70;;
32505;SDS011;18955;51.224;8.482;2022-11-20T11:05:08;12.23;;;7.32;;
32505;SDS011;18955;51.224;8.482;2022-11-20T11:07:57;13.98;;;8.48;;
32505;SDS011;18955;51.224;8.482;2022-11-20T11:10:26;18.65;;;9.63;;
32505;SDS011;18955;51.224;8.482;2022-11-20T11:13:00;13.52;;;7.97;;
32505;SDS011;18955;51.224;8.482;2022-11-20T11:18:02;16.23;;;9.20;;
32505;SDS011;18955;51.224;8.482;2022-11-20T11:20:29;16.15;;;9.02;;
32505;SDS011;18955;51.224;8.482;2022-11-20T11:22:56;13.32;;;7.90;;
32505;SDS011;18955;51.224;8.482;2022-11-20T11:25:36;17.70;;;9.30;;
32505;SDS011;18955;51.224;8.482;2022-11-20T11:28:04;12.95;;;8.27;;
32505;SDS011;18955;51.224;8.482;2022-11-20T11:30:45;15.00;;;8.80;;
32505;SDS011;18955;51.224;8.482;2022-11-20T11:35:52;13.90;;;8.63;;
32505;SDS011;18955;51.224;8.482;2022-11-20T11:40:53;14.40;;;8.98;;
32505;SDS011;18955;51.224;8.482;2022-11-20T11:43:22;11.88;;;7.95;;
32505;SDS011;18955;51.224;8.482;2022-11-20T11:46:26;11.05;;;6.70;;
32505;SDS011;18955;51.224;8.482;2022-11-20T11:51:26;9.35;;;5.68;;
32505;SDS011;18955;51.224;8.482;2022-11-20T11:53:58;11.50;;;7.18;;
32505;SDS011;18955;51.224;8.482;2022-11-20T11:56:27;9.85;;;6.55;;
32505;SDS011;18955;51.224;8.482;2022-11-20T11:58:55;17.27;;;9.85;;
32505;SDS011;18955;51.224;8.482;2022-11-20T12:01:28;13.32;;;7.65;;
32505;SDS011;18955;51.224;8.482;2022-11-20T12:07:08;11.30;;;7.53;;
32505;SDS011;18955;51.224;8.482;2022-11-20T12:09:56;12.73;;;7.80;;
32505;SDS011;18955;51.224;8.482;2022-11-20T12:12:31;11.13;;;7.43;;
32505;SDS011;18955;51.224;8.482;2022-11-20T12:15:02;12.50;;;7.63;;
32505;SDS011;18955;51.224;8.482;2022-11-20T12:17:33;11.20;;;7.15;;
32505;SDS011;18955;51.224;8.482;2022-11-20T12:19:59;10.43;;;6.50;;
32505;SDS011;18955;51.224;8.482;2022-11-20T12:22:41;9.65;;;5.70;;
32505;SDS011;18955;51.224;8.482;2022-11-20T12:27:44;10.55;;;6.20;;
32505;SDS011;18955;51.224;8.482;2022-11-20T12:30:14;11.35;;;7.30;;
32505;SDS011;18955;51.224;8.482;2022-11-20T12:41:02;13.35;;;7.57;;
32505;SDS011;18955;51.224;8.482;2022-11-20T12:43:37;16.23;;;9.30;;
32505;SDS011;18955;51.224;8.482;2022-11-20T12:46:47;13.10;;;7.72;;
32505;SDS011;18955;51.224;8.482;2022-11-20T13:00:07;12.68;;;7.82;;
32505;SDS011;18955;51.224;8.482;2022-11-20T13:05:19;12.40;;;8.00;;
32505;SDS011;18955;51.224;8.482;2022-11-20T13:07:54;14.00;;;9.25;;
32505;SDS011;18955;51.224;8.482;2022-11-20T13:10:26;14.55;;;8.30;;
32505;SDS011;18955;51.224;8.482;2022-11-20T13:13:20;13.05;;;7.97;;
32505;SDS011;18955;51.224;8.482;2022-11-20T13:18:42;13.98;;;8.57;;
32505;SDS011;18955;51.224;8.482;2022-11-20T13:23:47;15.20;;;9.30;;
32505;SDS011;18955;51.224;8.482;2022-11-20T13:26:15;10.10;;;6.82;;
32505;SDS011;18955;51.224;8.482;2022-11-20T13:28:47;11.60;;;7.63;;
32505;SDS011;18955;51.224;8.482;2022-11-20T13:31:33;14.07;;;8.85;;
32505;SDS011;18955;51.224;8.482;2022-11-20T13:34:02;13.98;;;8.25;;
32505;SDS011;18955;51.224;8.482;2022-11-20T13:36:31;12.82;;;7.68;;
32505;SDS011;18955;51.224;8.482;2022-11-20T13:38:58;13.10;;;8.32;;
32505;SDS011;18955;51.224;8.482;2022-11-20T13:44:04;14.27;;;8.75;;
32505;SDS011;18955;51.224;8.482;2022-11-20T13:46:38;12.52;;;8.40;;
32505;SDS011;18955;51.224;8.482;2022-11-20T13:49:09;14.30;;;9.07;;
32505;SDS011;18955;51.224;8.482;2022-11-20T13:51:48;10.13;;;5.75;;
32505;SDS011;18955;51.224;8.482;2022-11-20T13:57:04;10.77;;;7.20;;
32505;SDS011;18955;51.224;8.482;2022-11-20T14:00:16;9.77;;;6.80;;
32505;SDS011;18955;51.224;8.482;2022-11-20T14:02:27;10.95;;;7.57;;
32505;SDS011;18955;51.224;8.482;2022-11-20T14:04:56;16.98;;;9.65;;
32505;SDS011;18955;51.224;8.482;2022-11-20T14:07:35;13.70;;;8.07;;
32505;SDS011;18955;51.224;8.482;2022-11-20T14:10:05;13.93;;;9.13;;
32505;SDS011;18955;51.224;8.482;2022-11-20T14:12:32;15.35;;;8.43;;
32505;SDS011;18955;51.224;8.482;2022-11-20T14:14:59;13.23;;;8.35;;
32505;SDS011;18955;51.224;8.482;2022-11-20T14:20:15;21.42;;;9.50;;
32505;SDS011;18955;51.224;8.482;2022-11-20T14:22:50;13.45;;;8.90;;
32505;SDS011;18955;51.224;8.482;2022-11-20T14:28:01;14.32;;;9.02;;
32505;SDS011;18955;51.224;8.482;2022-11-20T14:30:42;13.73;;;8.55;;
32505;SDS011;18955;51.224;8.482;2022-11-20T14:33:10;12.93;;;8.68;;
32505;SDS011;18955;51.224;8.482;2022-11-20T14:35:47;13.93;;;8.15;;
32505;SDS011;18955;51.224;8.482;2022-11-20T14:38:16;13.57;;;8.80;;
32505;SDS011;18955;51.224;8.482;2022-11-20T14:40:44;11.48;;;7.95;;
32505;SDS011;18955;51.224;8.482;2022-11-20T14:45:55;12.02;;;8.32;;
32505;SDS011;18955;51.224;8.482;2022-11-20T14:48:32;13.68;;;8.55;;
32505;SDS011;18955;51.224;8.482;2022-11-20T14:51:11;15.30;;;8.82;;
32505;SDS011;18955;51.224;8.482;2022-11-20T14:53:50;12.90;;;8.50;;
32505;SDS011;18955;51.224;8.482;2022-11-20T14:56:21;16.33;;;9.90;;
32505;SDS011;18955;51.224;8.482;2022-11-20T14:58:56;14.90;;;8.23;;
32505;SDS011;18955;51.224;8.482;2022-11-20T15:01:27;15.98;;;8.90;;
32505;SDS011;18955;51.224;8.482;2022-11-20T15:04:10;16.83;;;9.45;;
32505;SDS011;18955;51.224;8.482;2022-11-20T15:06:37;18.60;;;9.60;;
32505;SDS011;18955;51.224;8.482;2022-11-20T15:09:15;16.55;;;9.75;;
32505;SDS011;18955;51.224;8.482;2022-11-20T15:14:17;14.95;;;8.70;;
32505;SDS011;18955;51.224;8.482;2022-11-20T15:16:43;16.33;;;9.13;;
32505;SDS011;18955;51.224;8.482;2022-11-20T15:19:20;13.20;;;8.75;;
32505;SDS011;18955;51.224;8.482;2022-11-20T15:21:48;15.80;;;8.70;;
32505;SDS011;18955;51.224;8.482;2022-11-20T15:24:15;13.75;;;8.93;;
32505;SDS011;18955;51.224;8.482;2022-11-20T15:26:42;17.42;;;10.02;;
32505;SDS011;18955;51.224;8.482;2022-11-20T15:29:12;14.73;;;9.55;;
32505;SDS011;18955;51.224;8.482;2022-11-20T15:31:40;14.70;;;9.52;;
32505;SDS011;18955;51.224;8.482;2022-11-20T15:34:12;16.67;;;9.68;;
32505;SDS011;18955;51.224;8.482;2022-11-20T15:36:39;15.20;;;9.38;;
32505;SDS011;18955;51.224;8.482;2022-11-20T15:39:06;14.50;;;9.35;;
32505;SDS011;18955;51.224;8.482;2022-11-20T15:41:36;14.63;;;8.77;;
32505;SDS011;18955;51.224;8.482;2022-11-20T15:44:03;15.13;;;9.07;;
32505;SDS011;18955;51.224;8.482;2022-11-20T15:46:31;13.50;;;9.05;;
32505;SDS011;18955;51.224;8.482;2022-11-20T15:49:02;14.88;;;9.32;;
32505;SDS011;18955;51.224;8.482;2022-11-20T15:52:03;13.30;;;8.43;;
32505;SDS011;18955;51.224;8.482;2022-11-20T15:54:22;15.43;;;8.95;;
32505;SDS011;18955;51.224;8.482;2022-11-20T15:56:49;13.18;;;8.65;;
32505;SDS011;18955;51.224;8.482;2022-11-20T15:59:19;12.25;;;8.48;;
32505;SDS011;18955;51.224;8.482;2022-11-20T16:01:45;11.77;;;7.93;;
32505;SDS011;18955;51.224;8.482;2022-11-20T16:04:12;13.23;;;8.02;;
32505;SDS011;18955;51.224;8.482;2022-11-20T16:06:39;12.60;;;8.65;;
32505;SDS011;18955;51.224;8.482;2022-11-20T16:09:06;13.02;;;8.73;;
32505;SDS011;18955;51.224;8.482;2022-11-20T16:14:02;13.68;;;8.07;;
32505;SDS011;18955;51.224;8.482;2022-11-20T16:16:47;13.48;;;8.43;;
32505;SDS011;18955;51.224;8.482;2022-11-20T16:19:14;13.27;;;7.85;;
32505;SDS011;18955;51.224;8.482;2022-11-20T16:21:41;17.05;;;9.48;;
32505;SDS011;18955;51.224;8.482;2022-11-20T16:24:11;16.63;;;9.23;;
32505;SDS011;18955;51.224;8.482;2022-11-20T16:26:38;13.05;;;8.88;;
32505;SDS011;18955;51.224;8.482;2022-11-20T16:29:05;13.73;;;8.93;;
32505;SDS011;18955;51.224;8.482;2022-11-20T16:31:32;15.13;;;9.80;;
32505;SDS011;18955;51.224;8.482;2022-11-20T16:34:00;17.40;;;8.88;;
32505;SDS011;18955;51.224;8.482;2022-11-20T16:36:28;14.30;;;8.75;;
32505;SDS011;18955;51.224;8.482;2022-11-20T16:38:56;16.27;;;9.30;;
32505;SDS011;18955;51.224;8.482;2022-11-20T16:41:24;14.45;;;9.15;;
32505;SDS011;18955;51.224;8.482;2022-11-20T16:43:52;14.00;;;8.73;;
32505;SDS011;18955;51.224;8.482;2022-11-20T16:46:20;14.27;;;8.93;;
32505;SDS011;18955;51.224;8.482;2022-11-20T16:48:54;12.90;;;9.25;;
32505;SDS011;18955;51.224;8.482;2022-11-20T16:51:20;14.25;;;8.88;;
32505;SDS011;18955;51.224;8.482;2022-11-20T16:53:48;12.32;;;8.15;;
32505;SDS011;18955;51.224;8.482;2022-11-20T16:56:16;11.93;;;8.80;;
32505;SDS011;18955;51.224;8.482;2022-11-20T16:58:44;14.77;;;9.27;;
32505;SDS011;18955;51.224;8.482;2022-11-20T17:01:13;15.05;;;8.77;;
32505;SDS011;18955;51.224;8.482;2022-11-20T17:03:41;12.88;;;8.35;;
32505;SDS011;18955;51.224;8.482;2022-11-20T17:06:18;13.45;;;8.93;;
32505;SDS011;18955;51.224;8.482;2022-11-20T17:08:46;14.57;;;9.27;;
32505;SDS011;18955;51.224;8.482;2022-11-20T17:13:40;12.70;;;7.93;;